sensor_id;sensor_type;location;lat;lon;timestamp;P1;durP1;ratioP1;P2;durP2;ratioP2
14030;SDS011;7090;49.436;8.490;2023-12-20T00:00:02;8.40;;;7.70;;
14030;SDS011;7090;49.436;8.490;2023-12-20T00:02:31;6.70;;;6.20;;
14030;SDS011;7090;49.436;8.490;2023-12-20T00:05:00;7.60;;;7.07;;
14030;SDS011;7090;49.436;8.490;2023-12-20T00:07:25;7.67;;;7.03;;
14030;SDS011;7090;49.436;8.490;2023-12-20T00:09:51;7.10;;;6.60;;
14030;SDS011;7090;49.436;8.490;2023-12-20T00:12:16;8.13;;;7.53;;
14030;SDS011;7090;49.436;8.490;2023-12-20T00:14:42;7.57;;;6.93;;
14030;SDS011;7090;49.436;8.490;2023-12-20T00:17:07;7.93;;;7.23;;
14030;SDS011;7090;49.436;8.490;2023-12-20T00:19:33;8.90;;;8.10;;
14030;SDS011;7090;49.436;8.490;2023-12-20T00:21:58;7.93;;;7.23;;
14030;SDS011;7090;49.436;8.490;2023-12-20T00:24:24;6.60;;;6.20;;
14030;SDS011;7090;49.436;8.490;2023-12-20T00:26:50;8.77;;;7.83;;
14030;SDS011;7090;49.436;8.490;2023-12-20T00:29:16;6.87;;;6.37;;
14030;SDS011;7090;49.436;8.490;2023-12-20T00:31:41;7.43;;;6.83;;
14030;SDS011;7090;49.436;8.490;2023-12-20T00:34:07;7.27;;;6.70;;
14030;SDS011;7090;49.436;8.490;2023-12-20T00:36:32;7.67;;;7.10;;
14030;SDS011;7090;49.436;8.490;2023-12-20T00:38:58;6.67;;;6.17;;
14030;SDS011;7090;49.436;8.490;2023-12-20T00:41:24;6.97;;;6.57;;
14030;SDS011;7090;49.436;8.490;2023-12-20T00:43:49;7.90;;;7.30;;
14030;SDS011;7090;49.436;8.490;2023-12-20T00:46:15;6.27;;;5.83;;
14030;SDS011;7090;49.436;8.490;2023-12-20T00:48:40;8.10;;;7.40;;
14030;SDS011;7090;49.436;8.490;2023-12-20T00:51:07;6.30;;;6.00;;
14030;SDS011;7090;49.436;8.490;2023-12-20T00:53:33;8.00;;;7.30;;
14030;SDS011;7090;49.436;8.490;2023-12-20T00:55:58;7.00;;;6.60;;
14030;SDS011;7090;49.436;8.490;2023-12-20T00:58:24;7.97;;;7.27;;
14030;SDS011;7090;49.436;8.490;2023-12-20T01:00:49;8.00;;;7.30;;
14030;SDS011;7090;49.436;8.490;2023-12-20T01:03:15;9.10;;;6.27;;
14030;SDS011;7090;49.436;8.490;2023-12-20T01:05:40;5.93;;;5.53;;
14030;SDS011;7090;49.436;8.490;2023-12-20T01:08:06;6.13;;;5.83;;
14030;SDS011;7090;49.436;8.490;2023-12-20T01:10:32;8.17;;;7.47;;
14030;SDS011;7090;49.436;8.490;2023-12-20T01:12:57;8.07;;;7.40;;
14030;SDS011;7090;49.436;8.490;2023-12-20T01:15:23;6.30;;;5.90;;
14030;SDS011;7090;49.436;8.490;2023-12-20T01:17:48;6.73;;;6.23;;
14030;SDS011;7090;49.436;8.490;2023-12-20T01:20:14;5.97;;;5.60;;
14030;SDS011;7090;49.436;8.490;2023-12-20T01:22:40;7.83;;;7.07;;
14030;SDS011;7090;49.436;8.490;2023-12-20T01:25:07;7.80;;;7.10;;
14030;SDS011;7090;49.436;8.490;2023-12-20T01:27:33;6.30;;;5.90;;
14030;SDS011;7090;49.436;8.490;2023-12-20T01:29:59;5.23;;;4.93;;
14030;SDS011;7090;49.436;8.490;2023-12-20T01:32:24;5.80;;;5.40;;
14030;SDS011;7090;49.436;8.490;2023-12-20T01:34:50;6.80;;;6.20;;
14030;SDS011;7090;49.436;8.490;2023-12-20T01:37:15;7.10;;;6.43;;
14030;SDS011;7090;49.436;8.490;2023-12-20T01:39:41;6.23;;;5.73;;
14030;SDS011;7090;49.436;8.490;2023-12-20T01:42:06;5.70;;;5.30;;
14030;SDS011;7090;49.436;8.490;2023-12-20T01:44:32;6.47;;;5.87;;
14030;SDS011;7090;49.436;8.490;2023-12-20T01:46:57;6.33;;;5.83;;
14030;SDS011;7090;49.436;8.490;2023-12-20T01:49:23;6.10;;;5.60;;
14030;SDS011;7090;49.436;8.490;2023-12-20T01:51:49;6.77;;;6.17;;
14030;SDS011;7090;49.436;8.490;2023-12-20T01:54:15;4.57;;;4.37;;
14030;SDS011;7090;49.436;8.490;2023-12-20T01:56:42;6.27;;;5.67;;
14030;SDS011;7090;49.436;8.490;2023-12-20T01:59:15;10.43;;;6.13;;
14030;SDS011;7090;49.436;8.490;2023-12-20T02:01:42;6.87;;;6.30;;
14030;SDS011;7090;49.436;8.490;2023-12-20T02:04:08;6.87;;;6.33;;
14030;SDS011;7090;49.436;8.490;2023-12-20T02:06:34;6.43;;;5.93;;
14030;SDS011;7090;49.436;8.490;2023-12-20T02:08:59;4.63;;;4.33;;
14030;SDS011;7090;49.436;8.490;2023-12-20T02:11:25;6.03;;;5.63;;
14030;SDS011;7090;49.436;8.490;2023-12-20T02:13:51;5.13;;;4.83;;
14030;SDS011;7090;49.436;8.490;2023-12-20T02:16:17;7.23;;;6.53;;
14030;SDS011;7090;49.436;8.490;2023-12-20T02:18:43;7.53;;;6.37;;
14030;SDS011;7090;49.436;8.490;2023-12-20T02:21:09;5.67;;;5.33;;
14030;SDS011;7090;49.436;8.490;2023-12-20T02:23:35;6.93;;;6.27;;
14030;SDS011;7090;49.436;8.490;2023-12-20T02:26:01;6.13;;;5.63;;
14030;SDS011;7090;49.436;8.490;2023-12-20T02:28:27;6.60;;;6.00;;
14030;SDS011;7090;49.436;8.490;2023-12-20T02:30:53;5.30;;;5.00;;
14030;SDS011;7090;49.436;8.490;2023-12-20T02:33:19;4.77;;;4.40;;
14030;SDS011;7090;49.436;8.490;2023-12-20T02:35:44;7.23;;;6.53;;
14030;SDS011;7090;49.436;8.490;2023-12-20T02:38:10;6.47;;;5.87;;
14030;SDS011;7090;49.436;8.490;2023-12-20T02:40:35;7.13;;;6.40;;
14030;SDS011;7090;49.436;8.490;2023-12-20T02:43:01;4.70;;;4.50;;
14030;SDS011;7090;49.436;8.490;2023-12-20T02:45:27;5.20;;;4.90;;
14030;SDS011;7090;49.436;8.490;2023-12-20T02:47:52;6.20;;;5.70;;
14030;SDS011;7090;49.436;8.490;2023-12-20T02:50:18;5.03;;;4.73;;
14030;SDS011;7090;49.436;8.490;2023-12-20T02:52:47;5.70;;;5.30;;
14030;SDS011;7090;49.436;8.490;2023-12-20T02:55:12;5.63;;;5.33;;
14030;SDS011;7090;49.436;8.490;2023-12-20T02:57:38;4.47;;;4.27;;
14030;SDS011;7090;49.436;8.490;2023-12-20T03:00:07;4.30;;;4.20;;
14030;SDS011;7090;49.436;8.490;2023-12-20T03:02:34;5.90;;;5.60;;
14030;SDS011;7090;49.436;8.490;2023-12-20T03:05:00;4.50;;;4.30;;
14030;SDS011;7090;49.436;8.490;2023-12-20T03:07:26;4.93;;;4.73;;
14030;SDS011;7090;49.436;8.490;2023-12-20T03:09:51;5.40;;;5.00;;
14030;SDS011;7090;49.436;8.490;2023-12-20T03:12:17;4.27;;;4.07;;
14030;SDS011;7090;49.436;8.490;2023-12-20T03:14:43;6.63;;;4.83;;
14030;SDS011;7090;49.436;8.490;2023-12-20T03:17:09;4.57;;;4.30;;
14030;SDS011;7090;49.436;8.490;2023-12-20T03:19:35;5.00;;;4.70;;
14030;SDS011;7090;49.436;8.490;2023-12-20T03:22:01;5.53;;;5.13;;
14030;SDS011;7090;49.436;8.490;2023-12-20T03:24:26;4.20;;;4.10;;
14030;SDS011;7090;49.436;8.490;2023-12-20T03:26:52;4.77;;;4.53;;
14030;SDS011;7090;49.436;8.490;2023-12-20T03:29:18;5.37;;;5.07;;
14030;SDS011;7090;49.436;8.490;2023-12-20T03:31:43;5.47;;;5.17;;
14030;SDS011;7090;49.436;8.490;2023-12-20T03:34:09;5.67;;;5.37;;
14030;SDS011;7090;49.436;8.490;2023-12-20T03:36:35;5.87;;;5.57;;
14030;SDS011;7090;49.436;8.490;2023-12-20T03:39:01;4.80;;;4.60;;
14030;SDS011;7090;49.436;8.490;2023-12-20T03:41:26;5.83;;;5.43;;
14030;SDS011;7090;49.436;8.490;2023-12-20T03:43:52;5.27;;;5.00;;
14030;SDS011;7090;49.436;8.490;2023-12-20T03:46:18;5.30;;;5.10;;
14030;SDS011;7090;49.436;8.490;2023-12-20T03:48:43;4.57;;;4.37;;
14030;SDS011;7090;49.436;8.490;2023-12-20T03:51:09;5.37;;;5.07;;
14030;SDS011;7090;49.436;8.490;2023-12-20T03:53:34;5.53;;;5.20;;
14030;SDS011;7090;49.436;8.490;2023-12-20T03:56:00;4.27;;;4.07;;
14030;SDS011;7090;49.436;8.490;2023-12-20T03:58:26;4.93;;;4.73;;
14030;SDS011;7090;49.436;8.490;2023-12-20T04:01:00;4.53;;;4.33;;
14030;SDS011;7090;49.436;8.490;2023-12-20T04:03:26;5.53;;;5.23;;
14030;SDS011;7090;49.436;8.490;2023-12-20T04:05:52;4.43;;;4.30;;
14030;SDS011;7090;49.436;8.490;2023-12-20T04:08:18;4.83;;;4.63;;
14030;SDS011;7090;49.436;8.490;2023-12-20T04:10:43;4.93;;;4.63;;
14030;SDS011;7090;49.436;8.490;2023-12-20T04:13:09;5.60;;;5.30;;
14030;SDS011;7090;49.436;8.490;2023-12-20T04:15:34;5.57;;;5.10;;
14030;SDS011;7090;49.436;8.490;2023-12-20T04:18:00;5.80;;;5.50;;
14030;SDS011;7090;49.436;8.490;2023-12-20T04:20:26;4.77;;;4.57;;
14030;SDS011;7090;49.436;8.490;2023-12-20T04:22:51;4.73;;;4.63;;
14030;SDS011;7090;49.436;8.490;2023-12-20T04:25:17;5.30;;;5.00;;
14030;SDS011;7090;49.436;8.490;2023-12-20T04:27:42;4.73;;;4.53;;
14030;SDS011;7090;49.436;8.490;2023-12-20T04:30:08;4.87;;;4.67;;
14030;SDS011;7090;49.436;8.490;2023-12-20T04:32:34;5.10;;;4.90;;
14030;SDS011;7090;49.436;8.490;2023-12-20T04:34:59;5.27;;;5.03;;
14030;SDS011;7090;49.436;8.490;2023-12-20T04:37:25;5.03;;;4.83;;
14030;SDS011;7090;49.436;8.490;2023-12-20T04:39:50;5.50;;;5.30;;
14030;SDS011;7090;49.436;8.490;2023-12-20T04:42:16;6.00;;;5.50;;
14030;SDS011;7090;49.436;8.490;2023-12-20T04:44:41;5.10;;;4.90;;
14030;SDS011;7090;49.436;8.490;2023-12-20T04:47:08;4.70;;;4.60;;
14030;SDS011;7090;49.436;8.490;2023-12-20T04:49:34;5.30;;;5.10;;
14030;SDS011;7090;49.436;8.490;2023-12-20T04:51:59;4.77;;;4.63;;
14030;SDS011;7090;49.436;8.490;2023-12-20T04:54:25;5.00;;;4.80;;
14030;SDS011;7090;49.436;8.490;2023-12-20T04:56:51;5.20;;;5.00;;
14030;SDS011;7090;49.436;8.490;2023-12-20T04:59:16;5.47;;;5.17;;
14030;SDS011;7090;49.436;8.490;2023-12-20T05:01:42;5.30;;;5.10;;
14030;SDS011;7090;49.436;8.490;2023-12-20T05:04:07;5.60;;;5.40;;
14030;SDS011;7090;49.436;8.490;2023-12-20T05:06:33;6.20;;;5.90;;
14030;SDS011;7090;49.436;8.490;2023-12-20T05:08:58;6.23;;;5.93;;
14030;SDS011;7090;49.436;8.490;2023-12-20T05:11:24;6.10;;;5.90;;
14030;SDS011;7090;49.436;8.490;2023-12-20T05:13:49;6.60;;;6.20;;
14030;SDS011;7090;49.436;8.490;2023-12-20T05:16:15;6.67;;;6.37;;
14030;SDS011;7090;49.436;8.490;2023-12-20T05:18:42;6.10;;;5.90;;
14030;SDS011;7090;49.436;8.490;2023-12-20T05:21:08;6.30;;;6.10;;
14030;SDS011;7090;49.436;8.490;2023-12-20T05:23:34;6.17;;;5.97;;
14030;SDS011;7090;49.436;8.490;2023-12-20T05:26:00;7.10;;;6.80;;
14030;SDS011;7090;49.436;8.490;2023-12-20T05:28:25;6.70;;;6.40;;
14030;SDS011;7090;49.436;8.490;2023-12-20T05:30:51;7.40;;;7.10;;
14030;SDS011;7090;49.436;8.490;2023-12-20T05:33:16;6.40;;;6.20;;
14030;SDS011;7090;49.436;8.490;2023-12-20T05:35:42;7.00;;;6.80;;
14030;SDS011;7090;49.436;8.490;2023-12-20T05:38:07;6.90;;;6.70;;
14030;SDS011;7090;49.436;8.490;2023-12-20T05:40:33;7.83;;;7.53;;
14030;SDS011;7090;49.436;8.490;2023-12-20T05:42:59;7.97;;;7.57;;
14030;SDS011;7090;49.436;8.490;2023-12-20T05:45:24;7.30;;;7.03;;
14030;SDS011;7090;49.436;8.490;2023-12-20T05:47:50;7.20;;;7.00;;
14030;SDS011;7090;49.436;8.490;2023-12-20T05:50:15;7.87;;;7.57;;
14030;SDS011;7090;49.436;8.490;2023-12-20T05:52:41;7.63;;;7.33;;
14030;SDS011;7090;49.436;8.490;2023-12-20T05:55:06;7.50;;;7.20;;
14030;SDS011;7090;49.436;8.490;2023-12-20T05:57:32;8.07;;;7.67;;
14030;SDS011;7090;49.436;8.490;2023-12-20T05:59:58;7.70;;;7.40;;
14030;SDS011;7090;49.436;8.490;2023-12-20T06:02:23;7.90;;;7.60;;
14030;SDS011;7090;49.436;8.490;2023-12-20T06:04:49;8.00;;;7.70;;
14030;SDS011;7090;49.436;8.490;2023-12-20T06:07:15;8.53;;;8.13;;
14030;SDS011;7090;49.436;8.490;2023-12-20T06:09:41;8.50;;;8.20;;
14030;SDS011;7090;49.436;8.490;2023-12-20T06:12:07;9.17;;;8.73;;
14030;SDS011;7090;49.436;8.490;2023-12-20T06:14:35;8.53;;;8.03;;
14030;SDS011;7090;49.436;8.490;2023-12-20T06:17:01;9.53;;;8.43;;
14030;SDS011;7090;49.436;8.490;2023-12-20T06:19:27;7.90;;;7.60;;
14030;SDS011;7090;49.436;8.490;2023-12-20T06:21:53;7.70;;;7.40;;
14030;SDS011;7090;49.436;8.490;2023-12-20T06:24:19;7.73;;;7.43;;
14030;SDS011;7090;49.436;8.490;2023-12-20T06:26:44;7.83;;;7.53;;
14030;SDS011;7090;49.436;8.490;2023-12-20T06:29:10;8.13;;;7.83;;
14030;SDS011;7090;49.436;8.490;2023-12-20T06:31:36;8.80;;;8.40;;
14030;SDS011;7090;49.436;8.490;2023-12-20T06:34:01;8.43;;;8.13;;
14030;SDS011;7090;49.436;8.490;2023-12-20T06:36:28;9.70;;;9.30;;
14030;SDS011;7090;49.436;8.490;2023-12-20T06:38:53;9.07;;;8.67;;
14030;SDS011;7090;49.436;8.490;2023-12-20T06:41:19;9.30;;;8.90;;
14030;SDS011;7090;49.436;8.490;2023-12-20T06:43:45;9.70;;;9.30;;
14030;SDS011;7090;49.436;8.490;2023-12-20T06:46:10;9.93;;;9.53;;
14030;SDS011;7090;49.436;8.490;2023-12-20T06:48:38;9.33;;;8.93;;
14030;SDS011;7090;49.436;8.490;2023-12-20T06:51:04;10.27;;;9.87;;
14030;SDS011;7090;49.436;8.490;2023-12-20T06:53:31;11.53;;;11.03;;
14030;SDS011;7090;49.436;8.490;2023-12-20T06:55:56;11.60;;;11.10;;
14030;SDS011;7090;49.436;8.490;2023-12-20T06:58:22;11.80;;;11.30;;
14030;SDS011;7090;49.436;8.490;2023-12-20T07:00:48;12.10;;;11.33;;
14030;SDS011;7090;49.436;8.490;2023-12-20T07:03:14;11.33;;;10.90;;
14030;SDS011;7090;49.436;8.490;2023-12-20T07:05:39;12.47;;;11.87;;
14030;SDS011;7090;49.436;8.490;2023-12-20T07:08:06;12.07;;;11.57;;
14030;SDS011;7090;49.436;8.490;2023-12-20T07:10:31;12.70;;;12.00;;
14030;SDS011;7090;49.436;8.490;2023-12-20T07:12:57;12.13;;;11.60;;
14030;SDS011;7090;49.436;8.490;2023-12-20T07:15:22;11.17;;;10.67;;
14030;SDS011;7090;49.436;8.490;2023-12-20T07:17:48;10.83;;;10.40;;
14030;SDS011;7090;49.436;8.490;2023-12-20T07:20:14;11.77;;;11.27;;
14030;SDS011;7090;49.436;8.490;2023-12-20T07:22:40;11.90;;;11.37;;
14030;SDS011;7090;49.436;8.490;2023-12-20T07:25:05;13.93;;;10.60;;
14030;SDS011;7090;49.436;8.490;2023-12-20T07:27:32;10.80;;;10.30;;
14030;SDS011;7090;49.436;8.490;2023-12-20T07:29:57;11.50;;;11.00;;
14030;SDS011;7090;49.436;8.490;2023-12-20T07:32:23;11.70;;;10.83;;
14030;SDS011;7090;49.436;8.490;2023-12-20T07:34:48;10.90;;;10.40;;
14030;SDS011;7090;49.436;8.490;2023-12-20T07:37:14;10.73;;;10.03;;
14030;SDS011;7090;49.436;8.490;2023-12-20T07:39:40;11.03;;;10.53;;
14030;SDS011;7090;49.436;8.490;2023-12-20T07:42:06;10.20;;;9.80;;
14030;SDS011;7090;49.436;8.490;2023-12-20T07:44:32;11.73;;;11.13;;
14030;SDS011;7090;49.436;8.490;2023-12-20T07:46:58;11.30;;;10.70;;
14030;SDS011;7090;49.436;8.490;2023-12-20T07:49:23;10.83;;;10.23;;
14030;SDS011;7090;49.436;8.490;2023-12-20T07:51:49;10.30;;;9.90;;
14030;SDS011;7090;49.436;8.490;2023-12-20T07:54:15;10.00;;;9.60;;
14030;SDS011;7090;49.436;8.490;2023-12-20T07:56:41;10.60;;;10.10;;
14030;SDS011;7090;49.436;8.490;2023-12-20T07:59:06;9.57;;;9.17;;
14030;SDS011;7090;49.436;8.490;2023-12-20T08:01:32;9.10;;;8.70;;
14030;SDS011;7090;49.436;8.490;2023-12-20T08:03:58;10.03;;;9.43;;
14030;SDS011;7090;49.436;8.490;2023-12-20T08:06:23;9.13;;;8.70;;
14030;SDS011;7090;49.436;8.490;2023-12-20T08:08:49;8.33;;;7.93;;
14030;SDS011;7090;49.436;8.490;2023-12-20T08:11:15;8.53;;;8.13;;
14030;SDS011;7090;49.436;8.490;2023-12-20T08:13:40;8.23;;;7.67;;
14030;SDS011;7090;49.436;8.490;2023-12-20T08:16:06;7.40;;;7.10;;
14030;SDS011;7090;49.436;8.490;2023-12-20T08:18:31;7.63;;;7.27;;
14030;SDS011;7090;49.436;8.490;2023-12-20T08:20:57;8.37;;;7.97;;
14030;SDS011;7090;49.436;8.490;2023-12-20T08:23:23;8.80;;;8.40;;
14030;SDS011;7090;49.436;8.490;2023-12-20T08:25:48;8.27;;;7.83;;
14030;SDS011;7090;49.436;8.490;2023-12-20T08:28:14;8.60;;;8.17;;
14030;SDS011;7090;49.436;8.490;2023-12-20T08:30:40;8.70;;;8.30;;
14030;SDS011;7090;49.436;8.490;2023-12-20T08:33:06;9.17;;;8.60;;
14030;SDS011;7090;49.436;8.490;2023-12-20T08:35:36;9.40;;;9.00;;
14030;SDS011;7090;49.436;8.490;2023-12-20T08:38:02;9.50;;;9.00;;
14030;SDS011;7090;49.436;8.490;2023-12-20T08:40:29;9.73;;;9.17;;
14030;SDS011;7090;49.436;8.490;2023-12-20T08:42:54;9.77;;;9.27;;
14030;SDS011;7090;49.436;8.490;2023-12-20T08:45:20;9.53;;;9.13;;
14030;SDS011;7090;49.436;8.490;2023-12-20T08:47:46;10.17;;;9.13;;
14030;SDS011;7090;49.436;8.490;2023-12-20T08:50:11;9.97;;;9.37;;
14030;SDS011;7090;49.436;8.490;2023-12-20T08:52:37;9.90;;;9.40;;
14030;SDS011;7090;49.436;8.490;2023-12-20T08:55:03;10.47;;;9.87;;
14030;SDS011;7090;49.436;8.490;2023-12-20T08:57:29;10.13;;;9.30;;
14030;SDS011;7090;49.436;8.490;2023-12-20T08:59:56;10.07;;;9.53;;
14030;SDS011;7090;49.436;8.490;2023-12-20T09:02:22;9.57;;;9.17;;
14030;SDS011;7090;49.436;8.490;2023-12-20T09:04:48;9.97;;;9.40;;
14030;SDS011;7090;49.436;8.490;2023-12-20T09:07:23;9.93;;;9.23;;
14030;SDS011;7090;49.436;8.490;2023-12-20T09:09:52;8.90;;;8.60;;
14030;SDS011;7090;49.436;8.490;2023-12-20T09:12:21;9.53;;;8.97;;
14030;SDS011;7090;49.436;8.490;2023-12-20T09:14:48;9.33;;;8.93;;
14030;SDS011;7090;49.436;8.490;2023-12-20T09:17:15;10.07;;;9.53;;
14030;SDS011;7090;49.436;8.490;2023-12-20T09:19:42;10.40;;;9.60;;
14030;SDS011;7090;49.436;8.490;2023-12-20T09:22:11;9.67;;;9.27;;
14030;SDS011;7090;49.436;8.490;2023-12-20T09:24:37;8.20;;;7.90;;
14030;SDS011;7090;49.436;8.490;2023-12-20T09:27:06;8.17;;;7.77;;
14030;SDS011;7090;49.436;8.490;2023-12-20T09:29:31;8.27;;;7.87;;
14030;SDS011;7090;49.436;8.490;2023-12-20T09:31:57;8.83;;;8.13;;
14030;SDS011;7090;49.436;8.490;2023-12-20T09:34:23;8.33;;;7.93;;
14030;SDS011;7090;49.436;8.490;2023-12-20T09:36:49;7.70;;;7.03;;
14030;SDS011;7090;49.436;8.490;2023-12-20T09:39:16;6.60;;;6.40;;
14030;SDS011;7090;49.436;8.490;2023-12-20T09:41:46;7.30;;;7.00;;
14030;SDS011;7090;49.436;8.490;2023-12-20T09:44:34;7.27;;;6.80;;
14030;SDS011;7090;49.436;8.490;2023-12-20T09:47:02;7.68;;;7.18;;
14030;SDS011;7090;49.436;8.490;2023-12-20T09:49:28;6.90;;;6.60;;
14030;SDS011;7090;49.436;8.490;2023-12-20T09:51:55;6.87;;;6.57;;
14030;SDS011;7090;49.436;8.490;2023-12-20T09:54:21;7.67;;;7.10;;
14030;SDS011;7090;49.436;8.490;2023-12-20T09:56:48;7.97;;;7.27;;
14030;SDS011;7090;49.436;8.490;2023-12-20T09:59:14;7.53;;;6.72;;
14030;SDS011;7090;49.436;8.490;2023-12-20T10:01:40;6.65;;;6.40;;
14030;SDS011;7090;49.436;8.490;2023-12-20T10:04:08;6.63;;;6.30;;
14030;SDS011;7090;49.436;8.490;2023-12-20T10:06:37;6.30;;;6.10;;
14030;SDS011;7090;49.436;8.490;2023-12-20T10:09:07;6.10;;;5.80;;
14030;SDS011;7090;49.436;8.490;2023-12-20T10:11:34;7.23;;;6.67;;
14030;SDS011;7090;49.436;8.490;2023-12-20T10:14:02;6.93;;;6.47;;
14030;SDS011;7090;49.436;8.490;2023-12-20T10:16:28;6.72;;;6.30;;
14030;SDS011;7090;49.436;8.490;2023-12-20T10:18:54;6.40;;;6.00;;
14030;SDS011;7090;49.436;8.490;2023-12-20T10:21:21;6.37;;;5.93;;
14030;SDS011;7090;49.436;8.490;2023-12-20T10:23:48;6.70;;;6.20;;
14030;SDS011;7090;49.436;8.490;2023-12-20T10:26:20;7.73;;;6.83;;
14030;SDS011;7090;49.436;8.490;2023-12-20T10:28:46;9.00;;;6.00;;
14030;SDS011;7090;49.436;8.490;2023-12-20T10:33:58;7.30;;;6.80;;
14030;SDS011;7090;49.436;8.490;2023-12-20T10:36:28;6.40;;;6.10;;
14030;SDS011;7090;49.436;8.490;2023-12-20T10:38:55;6.47;;;5.90;;
14030;SDS011;7090;49.436;8.490;2023-12-20T10:41:26;7.50;;;6.90;;
14030;SDS011;7090;49.436;8.490;2023-12-20T10:44:00;7.10;;;6.73;;
14030;SDS011;7090;49.436;8.490;2023-12-20T10:46:33;7.00;;;6.60;;
14030;SDS011;7090;49.436;8.490;2023-12-20T10:48:59;7.00;;;6.45;;
14030;SDS011;7090;49.436;8.490;2023-12-20T10:51:27;6.70;;;6.25;;
14030;SDS011;7090;49.436;8.490;2023-12-20T10:53:54;6.13;;;5.73;;
14030;SDS011;7090;49.436;8.490;2023-12-20T10:56:20;6.23;;;5.83;;
14030;SDS011;7090;49.436;8.490;2023-12-20T10:58:48;5.73;;;5.53;;
14030;SDS011;7090;49.436;8.490;2023-12-20T11:01:15;6.77;;;6.37;;
14030;SDS011;7090;49.436;8.490;2023-12-20T11:03:44;5.53;;;5.33;;
14030;SDS011;7090;49.436;8.490;2023-12-20T11:06:26;8.73;;;7.80;;
14030;SDS011;7090;49.436;8.490;2023-12-20T11:14:19;5.93;;;5.70;;
14030;SDS011;7090;49.436;8.490;2023-12-20T11:16:48;7.10;;;6.67;;
14030;SDS011;7090;49.436;8.490;2023-12-20T11:19:16;6.20;;;6.00;;
14030;SDS011;7090;49.436;8.490;2023-12-20T11:21:42;7.70;;;6.93;;
14030;SDS011;7090;49.436;8.490;2023-12-20T11:24:07;7.00;;;6.47;;
14030;SDS011;7090;49.436;8.490;2023-12-20T11:26:34;8.17;;;7.40;;
14030;SDS011;7090;49.436;8.490;2023-12-20T11:31:57;6.63;;;6.33;;
14030;SDS011;7090;49.436;8.490;2023-12-20T11:34:26;8.17;;;7.50;;
14030;SDS011;7090;49.436;8.490;2023-12-20T11:37:00;8.17;;;7.37;;
14030;SDS011;7090;49.436;8.490;2023-12-20T11:39:27;6.85;;;6.45;;
14030;SDS011;7090;49.436;8.490;2023-12-20T11:41:54;7.80;;;7.28;;
14030;SDS011;7090;49.436;8.490;2023-12-20T11:44:21;7.10;;;6.80;;
14030;SDS011;7090;49.436;8.490;2023-12-20T11:46:47;6.50;;;6.30;;
14030;SDS011;7090;49.436;8.490;2023-12-20T11:49:12;7.10;;;6.80;;
14030;SDS011;7090;49.436;8.490;2023-12-20T11:51:41;7.60;;;6.97;;
14030;SDS011;7090;49.436;8.490;2023-12-20T11:54:07;17.63;;;7.50;;
14030;SDS011;7090;49.436;8.490;2023-12-20T11:56:34;6.47;;;6.00;;
14030;SDS011;7090;49.436;8.490;2023-12-20T11:59:01;7.17;;;6.53;;
14030;SDS011;7090;49.436;8.490;2023-12-20T12:01:26;7.13;;;6.73;;
14030;SDS011;7090;49.436;8.490;2023-12-20T12:04:07;6.53;;;6.13;;
14030;SDS011;7090;49.436;8.490;2023-12-20T12:06:33;6.63;;;6.03;;
14030;SDS011;7090;49.436;8.490;2023-12-20T12:08:59;7.67;;;7.07;;
14030;SDS011;7090;49.436;8.490;2023-12-20T12:11:25;7.53;;;7.03;;
14030;SDS011;7090;49.436;8.490;2023-12-20T12:13:50;8.13;;;7.30;;
14030;SDS011;7090;49.436;8.490;2023-12-20T12:16:19;6.93;;;6.63;;
14030;SDS011;7090;49.436;8.490;2023-12-20T12:18:46;7.93;;;7.27;;
14030;SDS011;7090;49.436;8.490;2023-12-20T12:21:18;6.53;;;6.03;;
14030;SDS011;7090;49.436;8.490;2023-12-20T12:23:45;7.53;;;7.10;;
14030;SDS011;7090;49.436;8.490;2023-12-20T12:26:11;8.53;;;7.97;;
14030;SDS011;7090;49.436;8.490;2023-12-20T12:28:37;6.80;;;6.47;;
14030;SDS011;7090;49.436;8.490;2023-12-20T12:31:06;7.53;;;7.13;;
14030;SDS011;7090;49.436;8.490;2023-12-20T12:33:31;6.77;;;6.23;;
14030;SDS011;7090;49.436;8.490;2023-12-20T12:35:57;6.50;;;6.30;;
14030;SDS011;7090;49.436;8.490;2023-12-20T12:38:26;7.33;;;6.83;;
14030;SDS011;7090;49.436;8.490;2023-12-20T12:40:52;7.20;;;6.80;;
14030;SDS011;7090;49.436;8.490;2023-12-20T12:43:20;7.10;;;6.53;;
14030;SDS011;7090;49.436;8.490;2023-12-20T12:45:47;10.13;;;6.50;;
14030;SDS011;7090;49.436;8.490;2023-12-20T12:48:13;8.23;;;7.47;;
14030;SDS011;7090;49.436;8.490;2023-12-20T12:50:39;7.80;;;7.03;;
14030;SDS011;7090;49.436;8.490;2023-12-20T12:53:05;8.80;;;8.13;;
14030;SDS011;7090;49.436;8.490;2023-12-20T12:55:31;6.97;;;6.67;;
14030;SDS011;7090;49.436;8.490;2023-12-20T12:57:57;7.07;;;6.57;;
14030;SDS011;7090;49.436;8.490;2023-12-20T13:00:22;7.10;;;6.70;;
14030;SDS011;7090;49.436;8.490;2023-12-20T13:02:49;7.13;;;6.73;;
14030;SDS011;7090;49.436;8.490;2023-12-20T13:05:14;6.60;;;6.30;;
14030;SDS011;7090;49.436;8.490;2023-12-20T13:07:40;8.77;;;7.00;;
14030;SDS011;7090;49.436;8.490;2023-12-20T13:10:06;7.30;;;6.80;;
14030;SDS011;7090;49.436;8.490;2023-12-20T13:12:31;8.00;;;7.40;;
14030;SDS011;7090;49.436;8.490;2023-12-20T13:14:57;7.00;;;6.50;;
14030;SDS011;7090;49.436;8.490;2023-12-20T13:17:23;10.33;;;7.10;;
14030;SDS011;7090;49.436;8.490;2023-12-20T13:19:49;7.97;;;7.10;;
14030;SDS011;7090;49.436;8.490;2023-12-20T13:22:15;12.50;;;7.50;;
14030;SDS011;7090;49.436;8.490;2023-12-20T13:24:41;6.93;;;6.60;;
14030;SDS011;7090;49.436;8.490;2023-12-20T13:27:09;7.50;;;6.80;;
14030;SDS011;7090;49.436;8.490;2023-12-20T13:29:35;7.10;;;6.70;;
14030;SDS011;7090;49.436;8.490;2023-12-20T13:32:00;7.93;;;7.40;;
14030;SDS011;7090;49.436;8.490;2023-12-20T13:34:26;7.43;;;7.03;;
14030;SDS011;7090;49.436;8.490;2023-12-20T13:36:52;9.40;;;7.93;;
14030;SDS011;7090;49.436;8.490;2023-12-20T13:39:17;7.43;;;6.83;;
14030;SDS011;7090;49.436;8.490;2023-12-20T13:41:43;7.53;;;6.93;;
14030;SDS011;7090;49.436;8.490;2023-12-20T13:44:08;7.57;;;6.97;;
14030;SDS011;7090;49.436;8.490;2023-12-20T13:46:34;7.00;;;6.50;;
14030;SDS011;7090;49.436;8.490;2023-12-20T13:49:00;6.00;;;5.80;;
14030;SDS011;7090;49.436;8.490;2023-12-20T13:51:26;7.00;;;6.60;;
14030;SDS011;7090;49.436;8.490;2023-12-20T13:53:52;6.27;;;5.97;;
14030;SDS011;7090;49.436;8.490;2023-12-20T13:56:17;7.23;;;6.73;;
14030;SDS011;7090;49.436;8.490;2023-12-20T13:58:45;7.13;;;6.73;;
14030;SDS011;7090;49.436;8.490;2023-12-20T14:01:11;6.30;;;6.10;;
14030;SDS011;7090;49.436;8.490;2023-12-20T14:03:37;6.80;;;6.20;;
14030;SDS011;7090;49.436;8.490;2023-12-20T14:06:03;7.80;;;7.10;;
14030;SDS011;7090;49.436;8.490;2023-12-20T14:08:28;7.90;;;7.30;;
14030;SDS011;7090;49.436;8.490;2023-12-20T14:10:54;7.30;;;6.80;;
14030;SDS011;7090;49.436;8.490;2023-12-20T14:13:20;7.53;;;7.00;;
14030;SDS011;7090;49.436;8.490;2023-12-20T14:15:46;7.67;;;7.10;;
14030;SDS011;7090;49.436;8.490;2023-12-20T14:18:12;7.53;;;6.90;;
14030;SDS011;7090;49.436;8.490;2023-12-20T14:20:39;6.70;;;6.20;;
14030;SDS011;7090;49.436;8.490;2023-12-20T14:23:07;7.33;;;6.53;;
14030;SDS011;7090;49.436;8.490;2023-12-20T14:25:34;9.37;;;7.20;;
14030;SDS011;7090;49.436;8.490;2023-12-20T14:28:02;10.77;;;7.60;;
14030;SDS011;7090;49.436;8.490;2023-12-20T14:30:31;7.40;;;6.80;;
14030;SDS011;7090;49.436;8.490;2023-12-20T14:32:57;7.20;;;6.70;;
14030;SDS011;7090;49.436;8.490;2023-12-20T14:35:23;7.57;;;6.90;;
14030;SDS011;7090;49.436;8.490;2023-12-20T14:37:49;7.53;;;6.93;;
14030;SDS011;7090;49.436;8.490;2023-12-20T14:40:15;6.77;;;6.47;;
14030;SDS011;7090;49.436;8.490;2023-12-20T14:42:44;6.80;;;6.50;;
14030;SDS011;7090;49.436;8.490;2023-12-20T14:45:10;7.30;;;6.90;;
14030;SDS011;7090;49.436;8.490;2023-12-20T14:47:38;6.57;;;6.33;;
14030;SDS011;7090;49.436;8.490;2023-12-20T14:50:03;7.83;;;7.30;;
14030;SDS011;7090;49.436;8.490;2023-12-20T14:52:30;7.50;;;6.90;;
14030;SDS011;7090;49.436;8.490;2023-12-20T14:54:56;7.80;;;7.10;;
14030;SDS011;7090;49.436;8.490;2023-12-20T14:57:21;7.27;;;6.87;;
14030;SDS011;7090;49.436;8.490;2023-12-20T14:59:47;7.97;;;7.27;;
14030;SDS011;7090;49.436;8.490;2023-12-20T15:02:13;6.90;;;6.60;;